Time;durP1;ratioP1;P1;durP2;ratioP2;P2;SDS_P1;SDS_P2;PMS_P1;PMS_P2;Temp;Humidity;BMP_temperature;BMP_pressure;BME280_temperature;BME280_humidity;BME280_pressure;Samples;Min_cycle;Max_cycle;Signal;HPM_P1;HPM_P2
2023/10/26 00:00:23;;;;;;;;;;;17.70;96.20;;;;;;5033638;28;19982;-62
2023/10/26 00:02:48;;;;;;;;;;;17.70;96.70;;;;;;5033225;28;20475;-62
2023/10/26 00:05:14;;;;;;;;;;;17.60;96.70;;;;;;5033164;28;20006;-63
2023/10/26 00:07:40;;;;;;;;;;;17.60;97.00;;;;;;5033464;28;19982;-61
2023/10/26 00:10:06;;;;;;;;;;;17.60;96.60;;;;;;5033408;28;20024;-61
2023/10/26 00:12:32;;;;;;;;;;;17.60;96.90;;;;;;5033397;28;20008;-64
2023/10/26 00:14:58;;;;;;;;;;;17.50;97.10;;;;;;5033535;28;20516;-64
2023/10/26 00:17:24;;;;;;;;;;;17.50;97.50;;;;;;5033114;28;20017;-63
2023/10/26 00:19:49;;;;;;;;;;;17.40;97.60;;;;;;5033422;28;20021;-63
2023/10/26 00:22:15;;;;;;;;;;;17.50;97.60;;;;;;5032975;28;20025;-62
2023/10/26 00:24:40;;;;;;;;;;;17.50;97.90;;;;;;5033350;28;20037;-64
2023/10/26 00:27:06;;;;;;;;;;;17.40;97.90;;;;;;5033171;28;20001;-62
2023/10/26 00:29:31;;;;;;;;;;;17.40;98.30;;;;;;5033256;28;20021;-62
2023/10/26 00:31:57;;;;;;;;;;;17.40;98.30;;;;;;5032736;28;20056;-62
2023/10/26 00:34:23;;;;;;;;;;;17.40;98.50;;;;;;5035567;28;20068;-63
2023/10/26 00:36:48;;;;;;;;;;;17.30;98.50;;;;;;5036679;28;19993;-62
2023/10/26 00:39:14;;;;;;;;;;;17.40;98.20;;;;;;5036870;28;19990;-64
2023/10/26 00:41:39;;;;;;;;;;;17.20;98.20;;;;;;5036838;28;19982;-60
2023/10/26 00:44:05;;;;;;;;;;;17.20;98.40;;;;;;5036571;28;20013;-64
2023/10/26 00:46:30;;;;;;;;;;;17.10;98.80;;;;;;5036542;28;19993;-61
2023/10/26 00:48:56;;;;;;;;;;;17.10;98.50;;;;;;5036620;28;20310;-62
2023/10/26 00:51:22;;;;;;;;;;;17.10;98.30;;;;;;5036771;28;19986;-60
2023/10/26 00:53:48;;;;;;;;;;;17.10;98.30;;;;;;5036729;28;20357;-61
2023/10/26 00:56:14;;;;;;;;;;;17.10;98.40;;;;;;5036334;28;19986;-64
2023/10/26 00:58:40;;;;;;;;;;;17.00;98.70;;;;;;5036384;28;19986;-60
2023/10/26 01:01:05;;;;;;;;;;;17.00;98.90;;;;;;5036195;28;19997;-63
2023/10/26 01:03:31;;;;;;;;;;;17.00;99.50;;;;;;5036051;28;20013;-65
2023/10/26 01:05:57;;;;;;;;;;;17.00;99.50;;;;;;5036518;28;19985;-61
2023/10/26 01:08:23;;;;;;;;;;;17.00;98.90;;;;;;5036151;28;20428;-64
2023/10/26 01:10:49;;;;;;;;;;;17.00;99.10;;;;;;5036408;28;20037;-60
2023/10/26 01:13:16;;;;;;;;;;;17.00;99.20;;;;;;5036209;28;19981;-62
2023/10/26 01:15:41;;;;;;;;;;;16.90;99.50;;;;;;5035897;28;20463;-64
2023/10/26 01:18:07;;;;;;;;;;;17.00;99.60;;;;;;5036276;28;20071;-60
2023/10/26 01:20:32;;;;;;;;;;;17.00;99.30;;;;;;5035932;28;20506;-61
2023/10/26 01:22:58;;;;;;;;;;;17.00;99.80;;;;;;5035949;28;19986;-61
2023/10/26 01:25:23;;;;;;;;;;;17.00;99.70;;;;;;5035959;28;20014;-63
2023/10/26 01:27:49;;;;;;;;;;;16.90;99.60;;;;;;5035903;28;20025;-61
2023/10/26 01:30:16;;;;;;;;;;;16.90;99.60;;;;;;5035707;28;19983;-63
2023/10/26 01:32:42;;;;;;;;;;;16.90;99.70;;;;;;5035664;28;20383;-63
2023/10/26 01:35:08;;;;;;;;;;;16.80;99.50;;;;;;5035984;28;19996;-64
2023/10/26 01:37:34;;;;;;;;;;;16.80;99.00;;;;;;5035762;28;19982;-63
2023/10/26 01:39:59;;;;;;;;;;;16.80;99.10;;;;;;5035512;28;20022;-64
2023/10/26 01:42:25;;;;;;;;;;;16.70;98.90;;;;;;5035733;28;20028;-63
2023/10/26 01:44:50;;;;;;;;;;;16.70;99.10;;;;;;5017589;28;20468;-63
2023/10/26 01:47:17;;;;;;;;;;;16.60;99.20;;;;;;5017664;28;19985;-62
2023/10/26 01:49:44;;;;;;;;;;;16.60;99.50;;;;;;5035548;28;20047;-63
2023/10/26 01:52:09;;;;;;;;;;;16.50;99.80;;;;;;5035386;28;19994;-65
2023/10/26 01:54:35;;;;;;;;;;;16.40;99.70;;;;;;5035301;28;20036;-60
2023/10/26 01:57:02;;;;;;;;;;;16.40;99.60;;;;;;5035617;28;20356;-61
2023/10/26 01:59:28;;;;;;;;;;;16.40;99.70;;;;;;5035336;28;19989;-63
2023/10/26 02:01:53;;;;;;;;;;;16.40;99.60;;;;;;5035290;28;20041;-63
2023/10/26 02:04:19;;;;;;;;;;;16.30;99.60;;;;;;5034914;28;20014;-62
2023/10/26 02:06:44;;;;;;;;;;;16.30;99.40;;;;;;5035151;28;19989;-60
2023/10/26 02:09:10;;;;;;;;;;;16.20;99.90;;;;;;5035325;28;19990;-60
2023/10/26 02:11:36;;;;;;;;;;;16.00;99.90;;;;;;5034987;28;20409;-63
2023/10/26 02:14:01;;;;;;;;;;;16.00;99.90;;;;;;5034980;28;19993;-64
2023/10/26 02:16:27;;;;;;;;;;;16.20;99.90;;;;;;5034896;28;19990;-61
2023/10/26 02:18:52;;;;;;;;;;;16.10;99.90;;;;;;5017421;28;19985;-61
2023/10/26 02:21:18;;;;;;;;;;;16.20;99.90;;;;;;5034681;28;20081;-60
2023/10/26 02:23:44;;;;;;;;;;;16.20;99.90;;;;;;5034802;28;20006;-64
2023/10/26 02:26:09;;;;;;;;;;;16.30;99.90;;;;;;5034660;28;19986;-64
2023/10/26 02:28:35;;;;;;;;;;;16.30;99.90;;;;;;5034576;28;19982;-60
2023/10/26 02:31:01;;;;;;;;;;;16.30;99.90;;;;;;5034839;28;20002;-65
2023/10/26 02:33:26;;;;;;;;;;;16.40;99.90;;;;;;5034622;28;19982;-63
2023/10/26 02:35:52;;;;;;;;;;;16.40;99.90;;;;;;5034714;28;20394;-63
2023/10/26 02:38:17;;;;;;;;;;;16.40;99.90;;;;;;5034581;28;20352;-60
2023/10/26 02:40:43;;;;;;;;;;;16.40;99.90;;;;;;5034497;28;19982;-64
2023/10/26 02:43:08;;;;;;;;;;;16.40;99.90;;;;;;5034114;28;20041;-60
2023/10/26 02:45:34;;;;;;;;;;;16.40;99.90;;;;;;5034484;28;19990;-64
2023/10/26 02:48:00;;;;;;;;;;;16.30;99.90;;;;;;5034237;28;19992;-63
2023/10/26 02:50:27;;;;;;;;;;;16.30;99.90;;;;;;5034186;28;20021;-63
2023/10/26 02:52:52;;;;;;;;;;;16.30;99.90;;;;;;5034298;28;19983;-60
2023/10/26 02:55:18;;;;;;;;;;;16.30;99.90;;;;;;5034275;28;19985;-62
2023/10/26 02:57:43;;;;;;;;;;;16.40;99.90;;;;;;5033562;28;19989;-64
2023/10/26 03:00:09;;;;;;;;;;;16.30;99.90;;;;;;5034293;28;19986;-62
2023/10/26 03:02:35;;;;;;;;;;;16.40;99.90;;;;;;5034207;28;19989;-61
2023/10/26 03:05:01;;;;;;;;;;;16.40;99.70;;;;;;5034147;28;20013;-63
2023/10/26 03:07:26;;;;;;;;;;;16.30;99.40;;;;;;5033957;28;19982;-64
2023/10/26 03:09:52;;;;;;;;;;;16.30;99.50;;;;;;5033925;28;20039;-62
2023/10/26 03:12:18;;;;;;;;;;;16.30;99.80;;;;;;5033749;28;19993;-63
2023/10/26 03:14:44;;;;;;;;;;;16.20;99.90;;;;;;5033832;28;19986;-63
2023/10/26 03:17:11;;;;;;;;;;;16.20;99.90;;;;;;5033966;28;19992;-64
2023/10/26 03:19:37;;;;;;;;;;;16.20;99.90;;;;;;5033966;28;20393;-64
2023/10/26 03:22:02;;;;;;;;;;;16.10;99.90;;;;;;5033668;28;20084;-63
2023/10/26 03:24:28;;;;;;;;;;;16.10;99.90;;;;;;5033749;28;20468;-63
2023/10/26 03:26:53;;;;;;;;;;;16.10;99.90;;;;;;5033651;28;19989;-63
2023/10/26 03:29:21;;;;;;;;;;;16.00;99.90;;;;;;5033871;28;20333;-62
2023/10/26 03:31:46;;;;;;;;;;;16.10;99.90;;;;;;5033660;28;20021;-64
2023/10/26 03:34:12;;;;;;;;;;;16.10;99.90;;;;;;5033714;28;19982;-64
2023/10/26 03:36:37;;;;;;;;;;;16.10;99.90;;;;;;5033719;28;19986;-61
2023/10/26 03:39:04;;;;;;;;;;;16.00;99.90;;;;;;5033607;28;20081;-64
2023/10/26 03:41:29;;;;;;;;;;;16.10;99.90;;;;;;5033392;28;20018;-62
2023/10/26 03:43:55;;;;;;;;;;;16.10;99.90;;;;;;5033523;28;20045;-61
2023/10/26 03:46:21;;;;;;;;;;;16.10;99.90;;;;;;5033460;28;20486;-61
2023/10/26 03:48:46;;;;;;;;;;;16.20;99.90;;;;;;5033598;28;19985;-61
2023/10/26 03:51:12;;;;;;;;;;;16.20;99.90;;;;;;5033542;28;20381;-64
2023/10/26 03:53:37;;;;;;;;;;;16.20;99.90;;;;;;5033419;28;20009;-61
2023/10/26 03:56:03;;;;;;;;;;;16.30;99.90;;;;;;5033286;28;20005;-63
2023/10/26 03:58:28;;;;;;;;;;;16.40;99.90;;;;;;5033816;28;19986;-61
2023/10/26 04:00:56;;;;;;;;;;;16.40;99.90;;;;;;5033236;28;20486;-63
2023/10/26 04:03:22;;;;;;;;;;;16.40;99.90;;;;;;5033326;28;19982;-63
2023/10/26 04:05:47;;;;;;;;;;;16.50;99.30;;;;;;5033367;28;19985;-62
2023/10/26 04:08:13;;;;;;;;;;;16.50;99.40;;;;;;5034024;28;20444;-64
2023/10/26 04:10:40;;;;;;;;;;;16.50;99.00;;;;;;5037089;28;20486;-62
2023/10/26 04:13:06;;;;;;;;;;;16.50;98.50;;;;;;5037554;28;20013;-64
2023/10/26 04:15:31;;;;;;;;;;;16.50;98.50;;;;;;5037144;28;20416;-62
2023/10/26 04:17:58;;;;;;;;;;;16.40;98.50;;;;;;5037111;28;19989;-63
2023/10/26 04:20:23;;;;;;;;;;;16.40;98.40;;;;;;5036976;28;20040;-64
2023/10/26 04:22:49;;;;;;;;;;;16.30;98.30;;;;;;5037153;28;19982;-61
2023/10/26 04:25:14;;;;;;;;;;;16.30;98.70;;;;;;5036739;28;20464;-63
2023/10/26 04:27:40;;;;;;;;;;;16.20;98.80;;;;;;5037197;28;19986;-61
2023/10/26 04:30:07;;;;;;;;;;;16.10;98.80;;;;;;5037207;28;20436;-63
2023/10/26 04:32:32;;;;;;;;;;;16.20;98.90;;;;;;5036802;28;20013;-64
2023/10/26 04:34:59;;;;;;;;;;;16.20;99.10;;;;;;5036900;28;19986;-62
2023/10/26 04:37:25;;;;;;;;;;;16.00;99.60;;;;;;5037124;28;20340;-63
2023/10/26 04:39:50;;;;;;;;;;;16.10;99.70;;;;;;5036447;28;19986;-63
2023/10/26 04:42:17;;;;;;;;;;;16.10;99.00;;;;;;5036728;28;19982;-63
2023/10/26 04:44:43;;;;;;;;;;;16.10;99.70;;;;;;5036792;28;20472;-61
2023/10/26 04:47:08;;;;;;;;;;;16.10;99.30;;;;;;5036636;28;19989;-64
2023/10/26 04:49:34;;;;;;;;;;;16.10;99.00;;;;;;5036568;28;20080;-63
2023/10/26 04:52:00;;;;;;;;;;;16.20;99.20;;;;;;5036399;28;20436;-61
2023/10/26 04:54:27;;;;;;;;;;;16.20;99.20;;;;;;5036629;28;20316;-64
2023/10/26 04:56:53;;;;;;;;;;;16.30;98.90;;;;;;5036396;28;20032;-62
2023/10/26 04:59:18;;;;;;;;;;;16.30;99.30;;;;;;5036138;28;19989;-65
2023/10/26 05:01:44;;;;;;;;;;;16.20;99.00;;;;;;5035264;28;19982;-62
2023/10/26 05:04:10;;;;;;;;;;;16.30;99.20;;;;;;5035016;28;20010;-61
2023/10/26 05:06:36;;;;;;;;;;;16.20;99.00;;;;;;5001262;28;20431;-60
2023/10/26 05:09:01;;;;;;;;;;;16.20;98.70;;;;;;5016474;28;19989;-63
2023/10/26 05:11:27;;;;;;;;;;;16.20;98.80;;;;;;5015488;28;19989;-63
2023/10/26 05:13:53;;;;;;;;;;;16.10;99.00;;;;;;5015972;28;20113;-66
2023/10/26 05:16:19;;;;;;;;;;;16.10;99.00;;;;;;5016025;28;20456;-63
2023/10/26 05:18:44;;;;;;;;;;;16.10;99.60;;;;;;5015474;28;20065;-64
2023/10/26 05:21:10;;;;;;;;;;;16.00;99.80;;;;;;5014294;28;20029;-64
2023/10/26 05:23:37;;;;;;;;;;;16.00;99.90;;;;;;5014337;28;20045;-66
2023/10/26 05:26:03;;;;;;;;;;;16.00;99.90;;;;;;5015612;28;20091;-63
2023/10/26 05:28:29;;;;;;;;;;;16.00;99.90;;;;;;5015623;28;20464;-63
2023/10/26 05:30:54;;;;;;;;;;;16.00;99.90;;;;;;5020349;28;20377;-68
2023/10/26 05:33:20;;;;;;;;;;;15.90;99.90;;;;;;5026753;28;20033;-64
2023/10/26 05:35:45;;;;;;;;;;;15.90;99.90;;;;;;5034353;28;20083;-67
2023/10/26 05:38:11;;;;;;;;;;;15.90;99.90;;;;;;5034255;28;19994;-65
2023/10/26 05:40:37;;;;;;;;;;;16.00;99.90;;;;;;5033889;28;19992;-67
2023/10/26 05:43:03;;;;;;;;;;;16.00;99.90;;;;;;5029296;28;20037;-64
2023/10/26 05:45:29;;;;;;;;;;;16.20;99.90;;;;;;5014596;28;20041;-65
2023/10/26 05:47:55;;;;;;;;;;;16.30;99.90;;;;;;5017099;28;19982;-65
2023/10/26 05:50:20;;;;;;;;;;;16.40;99.90;;;;;;5015708;28;19993;-65
2023/10/26 05:52:46;;;;;;;;;;;16.50;99.90;;;;;;5015738;28;19982;-62
2023/10/26 05:55:13;;;;;;;;;;;16.60;99.90;;;;;;5015671;28;19982;-63
2023/10/26 05:57:38;;;;;;;;;;;16.70;99.90;;;;;;5015354;28;19990;-65
2023/10/26 06:00:09;;;;;;;;;;;16.80;99.90;;;;;;5015443;28;20082;-64
2023/10/26 06:02:35;;;;;;;;;;;16.80;99.90;;;;;;5015262;28;20044;-63
2023/10/26 06:05:01;;;;;;;;;;;16.90;99.50;;;;;;5030371;28;20006;-66
2023/10/26 06:07:26;;;;;;;;;;;17.00;98.80;;;;;;5034958;28;19985;-65
2023/10/26 06:09:52;;;;;;;;;;;17.10;98.80;;;;;;5033894;28;19982;-62
2023/10/26 06:12:17;;;;;;;;;;;17.10;98.40;;;;;;5028917;28;20091;-62
2023/10/26 06:14:43;;;;;;;;;;;17.20;97.60;;;;;;5020902;28;20005;-62
2023/10/26 06:17:10;;;;;;;;;;;17.30;97.10;;;;;;5013817;28;20052;-61
2023/10/26 06:19:35;;;;;;;;;;;17.40;97.20;;;;;;5019941;28;20029;-64
2023/10/26 06:22:01;;;;;;;;;;;17.50;97.00;;;;;;5032695;28;20112;-64
2023/10/26 06:24:27;;;;;;;;;;;17.60;96.80;;;;;;5031598;28;20130;-63
2023/10/26 06:26:52;;;;;;;;;;;17.60;96.80;;;;;;5025040;28;19990;-64
2023/10/26 06:29:19;;;;;;;;;;;17.70;96.30;;;;;;5027824;28;19990;-66
2023/10/26 06:31:44;;;;;;;;;;;17.70;96.40;;;;;;5032206;28;20052;-64
2023/10/26 06:34:10;;;;;;;;;;;17.70;95.90;;;;;;5024988;28;19990;-65
2023/10/26 06:36:36;;;;;;;;;;;17.70;96.20;;;;;;5032118;28;20036;-65
2023/10/26 06:39:02;;;;;;;;;;;17.70;96.50;;;;;;5032180;28;19997;-66
2023/10/26 06:41:27;;;;;;;;;;;17.80;95.60;;;;;;5032357;28;20140;-66
2023/10/26 06:43:53;;;;;;;;;;;18.00;95.20;;;;;;5031481;28;20064;-65
2023/10/26 06:46:19;;;;;;;;;;;18.00;94.10;;;;;;5032662;28;20371;-66
2023/10/26 06:48:45;;;;;;;;;;;18.10;93.50;;;;;;5024971;28;19983;-66
2023/10/26 06:51:11;;;;;;;;;;;18.20;93.70;;;;;;5006719;28;19994;-63
2023/10/26 06:53:36;;;;;;;;;;;18.20;93.90;;;;;;5008699;28;20028;-62
2023/10/26 06:56:09;;;;;;;;;;;18.40;93.40;;;;;;5005151;28;20124;-64
2023/10/26 06:58:35;;;;;;;;;;;18.80;92.80;;;;;;5004260;28;20032;-64
2023/10/26 07:01:05;;;;;;;;;;;19.30;90.90;;;;;;5016557;28;20444;-64
2023/10/26 07:03:30;;;;;;;;;;;20.80;86.20;;;;;;5024771;28;19993;-63
2023/10/26 07:05:59;;;;;;;;;;;21.10;74.70;;;;;;5026039;28;19990;-63
2023/10/26 07:08:25;;;;;;;;;;;21.00;72.50;;;;;;5027454;28;19990;-64
2023/10/26 07:10:50;;;;;;;;;;;20.80;74.60;;;;;;5011717;28;20056;-62
2023/10/26 07:13:17;;;;;;;;;;;21.10;73.40;;;;;;5009237;28;20105;-63
2023/10/26 07:15:42;;;;;;;;;;;23.30;69.50;;;;;;5009845;28;19993;-63
2023/10/26 07:18:08;;;;;;;;;;;26.50;57.30;;;;;;5013044;28;20005;-66
2023/10/26 07:20:36;;;;;;;;;;;28.90;50.10;;;;;;5002998;28;20396;-64
2023/10/26 07:23:03;;;;;;;;;;;29.10;46.10;;;;;;5021839;28;19987;-66
2023/10/26 07:25:28;;;;;;;;;;;30.00;44.40;;;;;;5014229;28;20491;-64
2023/10/26 07:27:54;;;;;;;;;;;31.90;42.10;;;;;;5019614;28;19997;-62
2023/10/26 07:30:20;;;;;;;;;;;31.70;39.80;;;;;;5014877;28;19993;-65
2023/10/26 07:32:46;;;;;;;;;;;29.50;40.80;;;;;;5017388;28;20029;-64
2023/10/26 07:35:14;;;;;;;;;;;27.70;43.10;;;;;;5022784;28;20048;-63
2023/10/26 07:37:40;;;;;;;;;;;26.40;46.20;;;;;;5010156;28;19996;-65
2023/10/26 07:40:06;;;;;;;;;;;25.50;47.90;;;;;;5018114;28;19990;-64
2023/10/26 07:42:31;;;;;;;;;;;24.90;50.00;;;;;;5011764;28;20018;-63
2023/10/26 07:44:57;;;;;;;;;;;24.30;51.30;;;;;;5015711;28;20049;-62
2023/10/26 07:47:23;;;;;;;;;;;23.80;54.30;;;;;;5019214;28;19994;-68
2023/10/26 07:49:49;;;;;;;;;;;23.30;56.90;;;;;;5001240;28;19990;-63
2023/10/26 07:52:15;;;;;;;;;;;23.30;60.10;;;;;;5018862;28;20005;-64
2023/10/26 07:54:40;;;;;;;;;;;23.60;59.50;;;;;;5013580;28;19990;-60
2023/10/26 07:57:06;;;;;;;;;;;23.70;56.50;;;;;;5025113;28;19987;-62
2023/10/26 07:59:32;;;;;;;;;;;23.40;56.10;;;;;;5021142;28;20036;-64
2023/10/26 08:01:57;;;;;;;;;;;23.20;57.20;;;;;;5018392;28;19991;-65
2023/10/26 08:04:23;;;;;;;;;;;22.90;57.10;;;;;;5022464;28;20053;-64
2023/10/26 08:06:49;;;;;;;;;;;22.70;58.10;;;;;;5021231;28;20028;-64
2023/10/26 08:09:15;;;;;;;;;;;22.60;59.90;;;;;;5016744;28;20002;-65
2023/10/26 08:11:41;;;;;;;;;;;22.30;62.50;;;;;;5025180;28;20436;-64
2023/10/26 08:14:08;;;;;;;;;;;22.20;62.40;;;;;;5024548;28;19986;-65
2023/10/26 08:16:34;;;;;;;;;;;22.10;62.80;;;;;;4999128;28;20001;-63
2023/10/26 08:18:59;;;;;;;;;;;22.00;69.60;;;;;;5016627;28;19986;-62
2023/10/26 08:21:25;;;;;;;;;;;21.90;68.50;;;;;;5024360;28;20072;-64
2023/10/26 08:23:50;;;;;;;;;;;21.80;66.60;;;;;;5022255;28;20042;-65
2023/10/26 08:26:16;;;;;;;;;;;21.70;71.50;;;;;;5016384;28;19990;-69
2023/10/26 08:28:41;;;;;;;;;;;21.80;75.70;;;;;;5008462;28;19986;-66
2023/10/26 08:31:07;;;;;;;;;;;21.70;73.00;;;;;;5008571;28;20009;-64
2023/10/26 08:33:35;;;;;;;;;;;21.70;68.70;;;;;;5021721;28;20051;-64
2023/10/26 08:36:03;;;;;;;;;;;21.70;68.20;;;;;;5002147;28;20684;-62
2023/10/26 08:38:29;;;;;;;;;;;21.60;72.30;;;;;;5018306;28;19986;-63
2023/10/26 08:41:00;;;;;;;;;;;21.70;74.90;;;;;;5017866;28;19987;-61
2023/10/26 08:43:27;;;;;;;;;;;21.70;75.10;;;;;;5005210;28;20256;-67
2023/10/26 08:45:56;;;;;;;;;;;21.70;72.50;;;;;;5015913;28;20098;-67
2023/10/26 08:48:22;;;;;;;;;;;21.70;77.90;;;;;;4989150;28;19990;-63
2023/10/26 08:50:49;;;;;;;;;;;21.70;76.90;;;;;;5007535;28;19990;-64
2023/10/26 08:53:15;;;;;;;;;;;21.60;76.10;;;;;;5017100;28;20395;-67
2023/10/26 08:55:42;;;;;;;;;;;21.60;76.40;;;;;;5018280;28;20029;-64
2023/10/26 08:58:08;;;;;;;;;;;21.50;89.10;;;;;;5005099;28;19993;-63
2023/10/26 09:00:40;;;;;;;;;;;21.20;92.90;;;;;;5015638;28;20072;-68
2023/10/26 09:03:06;;;;;;;;;;;21.10;93.60;;;;;;5022844;28;19994;-65
2023/10/26 09:05:32;;;;;;;;;;;21.10;93.30;;;;;;5018496;28;20010;-68
2023/10/26 09:08:15;;;;;;;;;;;21.30;92.50;;;;;;5017167;28;19991;-63
2023/10/26 09:10:40;;;;;;;;;;;21.60;91.00;;;;;;5018626;28;20124;-61
2023/10/26 09:13:16;;;;;;;;;;;21.80;82.90;;;;;;5017646;28;20806;-67
2023/10/26 09:15:49;;;;;;;;;;;22.00;79.70;;;;;;5010218;28;19990;-63
2023/10/26 09:18:18;;;;;;;;;;;22.20;76.30;;;;;;5027071;28;19986;-66
2023/10/26 09:20:59;;;;;;;;;;;22.40;78.20;;;;;;5005137;28;20014;-68
2023/10/26 09:23:28;;;;;;;;;;;22.60;73.60;;;;;;5020599;28;19993;-65
2023/10/26 09:25:58;;;;;;;;;;;22.80;71.80;;;;;;5018776;28;20013;-62
2023/10/26 09:28:24;;;;;;;;;;;22.80;68.30;;;;;;5026114;28;19990;-66
2023/10/26 09:30:49;;;;;;;;;;;22.60;70.50;;;;;;5015100;28;20153;-65
2023/10/26 09:33:23;;;;;;;;;;;22.60;71.70;;;;;;5007927;28;19997;-63
2023/10/26 09:35:49;;;;;;;;;;;22.80;72.50;;;;;;5015502;28;20452;-63
2023/10/26 09:38:17;;;;;;;;;;;23.40;74.90;;;;;;5010701;28;20009;-62
2023/10/26 09:40:42;;;;;;;;;;;24.00;70.10;;;;;;5009678;28;20084;-64
2023/10/26 09:43:08;;;;;;;;;;;24.70;63.70;;;;;;5018598;28;20042;-63
2023/10/26 09:45:34;;;;;;;;;;;25.20;56.30;;;;;;5016882;28;20006;-64
2023/10/26 09:48:02;;;;;;;;;;;25.50;53.50;;;;;;5010230;28;20472;-65
2023/10/26 09:50:28;;;;;;;;;;;26.00;58.80;;;;;;5014460;28;20144;-63
2023/10/26 09:52:54;;;;;;;;;;;26.50;55.20;;;;;;5030084;28;20125;-65
2023/10/26 09:55:20;;;;;;;;;;;26.90;50.50;;;;;;5013541;28;20143;-66
2023/10/26 09:57:59;;;;;;;;;;;27.40;50.40;;;;;;5011801;28;20073;-62
2023/10/26 10:00:29;;;;;;;;;;;27.70;47.70;;;;;;5017133;28;20339;-62
2023/10/26 10:03:15;;;;;;;;;;;28.00;43.30;;;;;;5026889;28;20463;-63
2023/10/26 10:05:41;;;;;;;;;;;28.30;43.40;;;;;;5029682;28;20071;-61
2023/10/26 10:08:07;;;;;;;;;;;28.70;48.70;;;;;;5025002;28;19993;-63
2023/10/26 10:10:33;;;;;;;;;;;29.10;45.20;;;;;;5021719;28;20368;-65
2023/10/26 10:12:59;;;;;;;;;;;29.50;42.90;;;;;;5010397;28;19998;-64
2023/10/26 10:15:35;;;;;;;;;;;29.90;41.60;;;;;;5025577;28;19994;-62
2023/10/26 10:18:02;;;;;;;;;;;30.10;38.90;;;;;;5027841;28;20051;-63
2023/10/26 10:20:29;;;;;;;;;;;30.30;39.10;;;;;;5033490;28;20108;-63
2023/10/26 10:22:58;;;;;;;;;;;30.40;37.70;;;;;;5033746;28;20463;-64
2023/10/26 10:25:44;;;;;;;;;;;30.60;37.00;;;;;;5017746;28;20008;-63
2023/10/26 10:28:13;;;;;;;;;;;30.90;35.80;;;;;;4986918;28;20092;-63
2023/10/26 10:30:55;;;;;;;;;;;30.70;35.20;;;;;;5026097;28;19990;-65
2023/10/26 10:33:22;;;;;;;;;;;30.70;35.70;;;;;;5012276;28;19990;-64
2023/10/26 10:35:57;;;;;;;;;;;30.90;36.40;;;;;;5013148;28;20002;-61
2023/10/26 10:38:24;;;;;;;;;;;31.00;34.60;;;;;;5010002;28;20040;-61
2023/10/26 10:40:55;;;;;;;;;;;30.80;35.00;;;;;;5011588;28;19990;-61
2023/10/26 10:43:34;;;;;;;;;;;30.60;34.20;;;;;;5011040;28;19986;-62
2023/10/26 10:46:09;;;;;;;;;;;30.30;34.20;;;;;;5029175;28;20336;-62
2023/10/26 10:48:35;;;;;;;;;;;30.20;34.10;;;;;;5029725;28;19990;-63
2023/10/26 10:51:01;;;;;;;;;;;30.10;34.10;;;;;;5018755;28;20449;-62
2023/10/26 10:53:29;;;;;;;;;;;29.90;34.70;;;;;;5030420;28;19993;-61
2023/10/26 10:55:55;;;;;;;;;;;30.20;34.60;;;;;;5032104;28;20033;-62
2023/10/26 10:58:20;;;;;;;;;;;30.30;36.20;;;;;;5001137;28;20034;-63
2023/10/26 11:00:48;;;;;;;;;;;30.50;33.50;;;;;;5024637;28;20132;-62
2023/10/26 11:03:23;;;;;;;;;;;30.70;34.10;;;;;;5012653;28;20044;-64
2023/10/26 11:05:48;;;;;;;;;;;30.30;33.50;;;;;;5013231;28;20468;-64
2023/10/26 11:08:14;;;;;;;;;;;30.20;35.10;;;;;;5015481;28;19990;-63
2023/10/26 11:10:40;;;;;;;;;;;30.30;34.10;;;;;;5018113;28;19986;-62
2023/10/26 11:13:05;;;;;;;;;;;30.30;34.00;;;;;;5017979;28;19996;-63
2023/10/26 11:15:35;;;;;;;;;;;30.20;36.00;;;;;;5012757;28;20455;-64
2023/10/26 11:18:01;;;;;;;;;;;30.40;35.20;;;;;;5012803;28;20330;-61
2023/10/26 11:20:40;;;;;;;;;;;30.80;34.10;;;;;;5013133;28;20018;-61
2023/10/26 11:23:06;;;;;;;;;;;30.50;33.50;;;;;;5022556;28;19992;-64
2023/10/26 11:25:32;;;;;;;;;;;30.60;34.00;;;;;;5022318;28;20014;-64
2023/10/26 11:28:00;;;;;;;;;;;30.90;32.50;;;;;;5012633;28;20302;-62
2023/10/26 11:30:25;;;;;;;;;;;30.70;31.20;;;;;;5012347;28;20041;-64
2023/10/26 11:32:51;;;;;;;;;;;30.40;32.40;;;;;;5017434;28;20012;-63
2023/10/26 11:35:17;;;;;;;;;;;30.40;33.90;;;;;;5013033;28;20989;-63
2023/10/26 11:37:47;;;;;;;;;;;30.20;36.00;;;;;;5012901;28;19991;-63
2023/10/26 11:40:14;;;;;;;;;;;29.90;32.90;;;;;;5011732;28;20500;-63
2023/10/26 11:42:43;;;;;;;;;;;29.70;33.60;;;;;;5011901;28;19997;-63
2023/10/26 11:45:09;;;;;;;;;;;29.80;34.00;;;;;;5012482;28;20419;-64
2023/10/26 11:47:53;;;;;;;;;;;29.80;32.90;;;;;;5011011;28;19986;-61
2023/10/26 11:50:20;;;;;;;;;;;29.80;32.80;;;;;;5011221;28;20037;-63
2023/10/26 11:52:45;;;;;;;;;;;29.70;33.40;;;;;;5015229;28;20080;-67
2023/10/26 11:55:14;;;;;;;;;;;29.60;33.30;;;;;;5023289;28;20073;-65
2023/10/26 11:57:40;;;;;;;;;;;29.40;32.90;;;;;;5013530;28;19992;-60
2023/10/26 12:00:06;;;;;;;;;;;29.10;33.30;;;;;;5014514;28;19991;-65
2023/10/26 12:02:32;;;;;;;;;;;29.00;33.00;;;;;;5013511;28;20081;-65
2023/10/26 12:04:59;;;;;;;;;;;28.80;33.30;;;;;;5011759;28;20461;-64
2023/10/26 12:07:25;;;;;;;;;;;29.20;33.90;;;;;;5012316;28;19987;-64
2023/10/26 12:09:50;;;;;;;;;;;29.40;33.20;;;;;;5010951;28;20318;-62
2023/10/26 12:12:16;;;;;;;;;;;29.50;33.30;;;;;;5012775;28;20433;-64
2023/10/26 12:14:43;;;;;;;;;;;29.60;33.60;;;;;;5011080;28;20005;-63
2023/10/26 12:17:09;;;;;;;;;;;29.60;33.80;;;;;;5012297;28;19986;-62
2023/10/26 12:19:35;;;;;;;;;;;29.90;32.70;;;;;;5011662;28;20010;-63
2023/10/26 12:22:00;;;;;;;;;;;29.80;33.30;;;;;;5012226;28;20040;-63
2023/10/26 12:24:27;;;;;;;;;;;29.80;33.50;;;;;;5012763;28;20557;-62
2023/10/26 12:26:56;;;;;;;;;;;29.50;33.20;;;;;;5012981;28;20005;-64
2023/10/26 12:29:21;;;;;;;;;;;29.70;33.50;;;;;;4995204;28;20089;-64
2023/10/26 12:31:47;;;;;;;;;;;29.70;33.10;;;;;;5016753;28;20052;-63
2023/10/26 12:34:12;;;;;;;;;;;29.20;34.40;;;;;;5016945;28;19983;-64
2023/10/26 12:36:38;;;;;;;;;;;29.00;33.50;;;;;;5016705;28;20040;-64
2023/10/26 12:39:03;;;;;;;;;;;28.80;33.70;;;;;;5017119;28;20453;-63
2023/10/26 12:41:29;;;;;;;;;;;28.60;33.50;;;;;;5016908;28;19986;-63
2023/10/26 12:43:54;;;;;;;;;;;28.50;33.80;;;;;;5016987;28;20006;-66
2023/10/26 12:46:20;;;;;;;;;;;28.40;34.10;;;;;;5016154;28;19997;-64
2023/10/26 12:48:46;;;;;;;;;;;28.30;33.80;;;;;;5017038;28;20495;-58
2023/10/26 12:51:11;;;;;;;;;;;28.10;33.80;;;;;;5016729;28;19982;-62
2023/10/26 12:53:37;;;;;;;;;;;28.10;34.20;;;;;;5015156;28;19991;-64
2023/10/26 12:56:02;;;;;;;;;;;28.20;33.80;;;;;;5016155;28;19987;-64
2023/10/26 12:58:28;;;;;;;;;;;28.40;35.50;;;;;;5016104;28;20463;-62
2023/10/26 13:00:54;;;;;;;;;;;28.40;33.90;;;;;;5015947;28;19986;-63
2023/10/26 13:03:19;;;;;;;;;;;28.50;33.50;;;;;;5016225;28;19993;-64
2023/10/26 13:05:45;;;;;;;;;;;28.70;32.90;;;;;;5016299;28;20048;-66
2023/10/26 13:08:11;;;;;;;;;;;28.70;32.80;;;;;;5016299;28;19992;-62
2023/10/26 13:10:36;;;;;;;;;;;28.80;33.10;;;;;;5016641;28;20026;-66
2023/10/26 13:13:02;;;;;;;;;;;28.70;33.60;;;;;;5016540;28;20018;-61
2023/10/26 13:15:28;;;;;;;;;;;28.80;32.80;;;;;;5016592;28;20013;-60
2023/10/26 13:17:53;;;;;;;;;;;28.90;33.60;;;;;;5016479;28;20378;-60
2023/10/26 13:20:19;;;;;;;;;;;29.00;33.90;;;;;;5015925;28;20022;-63
2023/10/26 13:22:44;;;;;;;;;;;29.20;33.40;;;;;;5016332;28;20029;-65
2023/10/26 13:25:10;;;;;;;;;;;29.40;33.40;;;;;;5016026;28;20368;-63
2023/10/26 13:27:35;;;;;;;;;;;29.70;33.40;;;;;;5016229;28;19983;-65
2023/10/26 13:30:01;;;;;;;;;;;29.80;33.20;;;;;;5016128;28;19983;-60
2023/10/26 13:32:26;;;;;;;;;;;30.00;32.90;;;;;;5015575;28;20132;-65
2023/10/26 13:34:52;;;;;;;;;;;30.10;32.00;;;;;;5015995;28;19983;-63
2023/10/26 13:37:18;;;;;;;;;;;30.00;33.00;;;;;;5015739;28;20061;-61
2023/10/26 13:39:44;;;;;;;;;;;29.70;33.70;;;;;;5015746;28;19983;-61
2023/10/26 13:42:10;;;;;;;;;;;29.30;33.20;;;;;;5015586;28;20444;-65
2023/10/26 13:44:36;;;;;;;;;;;29.40;33.00;;;;;;5015937;28;20010;-60
2023/10/26 13:47:01;;;;;;;;;;;29.40;32.70;;;;;;5015723;28;19986;-60
2023/10/26 13:49:27;;;;;;;;;;;29.30;32.80;;;;;;5015268;28;20483;-62
2023/10/26 13:51:53;;;;;;;;;;;29.40;33.10;;;;;;5015677;28;20350;-62
2023/10/26 13:54:18;;;;;;;;;;;29.50;33.20;;;;;;5015576;28;20025;-60
2023/10/26 13:56:44;;;;;;;;;;;29.40;33.20;;;;;;4996501;28;20013;-62
2023/10/26 13:59:09;;;;;;;;;;;29.40;33.30;;;;;;5015293;28;19993;-61
2023/10/26 14:01:35;;;;;;;;;;;29.30;33.30;;;;;;5015226;28;20033;-62
2023/10/26 14:04:00;;;;;;;;;;;29.10;32.50;;;;;;5014800;28;20064;-59
2023/10/26 14:06:26;;;;;;;;;;;28.80;32.80;;;;;;5015011;28;19990;-61
2023/10/26 14:08:52;;;;;;;;;;;28.50;34.00;;;;;;5015332;28;20021;-62
2023/10/26 14:11:18;;;;;;;;;;;28.30;33.70;;;;;;5014832;28;20364;-62